createdAt,value
2022-10-01T00:22:51.588Z,77.16
2022-10-01T00:26:20.798Z,77.55
2022-10-01T00:40:04.282Z,77.70
2022-10-01T00:47:11.949Z,77.77
2022-10-01T00:54:07.639Z,78.26
2022-10-01T01:35:55.416Z,78.33
2022-10-01T01:42:23.225Z,78.20
2022-10-01T02:00:48.308Z,78.34
2022-10-01T02:16:38.058Z,78.63
2022-10-01T02:20:17.787Z,79.10
2022-10-01T02:23:50.801Z,78.98
2022-10-01T02:30:30.270Z,79.32
2022-10-01T02:37:14.116Z,79.16
2022-10-01T02:40:08.036Z,79.34
2022-10-01T02:54:19.014Z,79.69
2022-10-01T03:00:24.324Z,80.02
2022-10-01T03:03:10.905Z,79.69
2022-10-01T03:06:12.948Z,79.65
2022-10-01T03:09:13.256Z,79.90
2022-10-01T03:16:00.498Z,79.77
2022-10-01T03:18:34.017Z,79.74
2022-10-01T03:22:04.328Z,79.70
2022-10-01T03:54:51.178Z,80.07
2022-10-01T04:04:20.245Z,80.12
2022-10-01T04:16:20.398Z,80.08
2022-10-01T04:23:48.747Z,80.33
2022-10-01T04:55:29.964Z,80.15
2022-10-01T04:57:56.641Z,79.93
2022-10-01T05:00:26.866Z,79.85
2022-10-01T05:02:54.231Z,80.21
2022-10-01T05:05:23.742Z,79.84
2022-10-01T05:07:50.669Z,79.69
2022-10-01T05:10:19.801Z,79.86
2022-10-01T05:12:47.499Z,79.38
2022-10-01T05:15:17.111Z,79.64
2022-10-01T05:17:44.034Z,79.29
2022-10-01T05:20:20.782Z,79.18
2022-10-01T05:22:49.084Z,79.25
2022-10-01T05:25:20.039Z,78.99
2022-10-01T05:27:47.415Z,78.93
2022-10-01T05:30:24.441Z,78.63
2022-10-01T05:32:59.424Z,78.59
2022-10-01T05:35:26.580Z,78.61
2022-10-01T05:38:00.651Z,78.45
2022-10-01T05:40:28.787Z,78.84
2022-10-01T05:42:56.970Z,78.68
2022-10-01T05:45:26.918Z,78.29
2022-10-01T05:48:01.628Z,78.46
2022-10-01T05:50:34.361Z,78.40
2022-10-01T05:53:02.115Z,78.47
2022-10-01T05:55:35.697Z,78.26
2022-10-01T05:58:04.820Z,78.41
2022-10-01T06:00:32.482Z,78.47
2022-10-01T06:03:00.995Z,78.19
2022-10-01T06:05:29.462Z,78.31
2022-10-01T06:07:56.636Z,78.00
2022-10-01T06:11:03.523Z,78.14
2022-10-01T06:13:43.778Z,77.75
2022-10-01T06:16:12.294Z,78.02
2022-10-01T06:21:27.570Z,78.06
2022-10-01T06:23:54.674Z,77.85
2022-10-01T06:26:21.771Z,77.67
2022-10-01T06:28:51.892Z,77.71
2022-10-01T06:31:19.382Z,77.87
2022-10-01T06:33:46.184Z,77.84
2022-10-01T06:36:12.895Z,77.55
2022-10-01T06:38:39.689Z,77.66
2022-10-01T06:41:06.391Z,77.74
2022-10-01T06:43:33.603Z,77.86
2022-10-01T06:46:16.114Z,77.57
2022-10-01T06:48:43.127Z,77.58
2022-10-01T06:51:09.826Z,77.55
2022-10-01T06:53:39.392Z,77.18
2022-10-01T06:56:09.536Z,77.31
2022-10-01T06:58:37.493Z,77.36
2022-10-01T07:01:07.484Z,77.14
2022-10-01T07:03:54.717Z,77.36
2022-10-01T07:06:26.272Z,77.24
2022-10-01T07:08:57.844Z,77.30
2022-10-01T07:11:30.071Z,77.12
2022-10-01T07:17:45.311Z,77.09
2022-10-01T07:21:34.620Z,77.04
2022-10-01T07:27:31.659Z,76.94
2022-10-01T07:31:05.016Z,76.87
2022-10-01T07:33:28.290Z,76.93
2022-10-01T08:57:22.777Z,73.93
2022-10-01T09:00:10.720Z,74.00
2022-10-01T09:02:50.054Z,73.94
2022-10-01T09:05:54.973Z,73.82
2022-10-01T09:08:55.921Z,73.83
2022-10-01T09:12:04.223Z,73.70
2022-10-01T09:14:55.935Z,73.44
2022-10-01T09:17:41.193Z,73.25
2022-10-01T09:20:27.062Z,73.30
2022-10-01T09:26:21.357Z,72.64
2022-10-01T09:28:56.009Z,72.51
2022-10-01T09:31:36.438Z,72.19
2022-10-01T09:34:10.771Z,71.97
2022-10-01T09:37:07.634Z,71.75
2022-10-01T09:40:04.950Z,71.79
2022-10-01T09:42:51.125Z,71.83
2022-10-01T09:45:20.022Z,71.53
2022-10-01T09:47:56.053Z,71.17
2022-10-01T09:50:39.241Z,70.96
2022-10-01T09:53:20.216Z,70.94
2022-10-01T09:55:53.036Z,71.43
2022-10-01T09:58:25.155Z,71.15
2022-10-01T10:00:54.052Z,71.34
2022-10-01T10:03:30.909Z,71.22
2022-10-01T10:06:02.762Z,71.57
2022-10-01T10:08:32.236Z,71.82
2022-10-01T10:11:13.284Z,71.64
2022-10-01T10:13:46.560Z,71.64
2022-10-01T10:16:38.608Z,71.55
2022-10-01T10:19:26.929Z,71.79
2022-10-01T10:21:58.049Z,71.81
2022-10-01T10:24:35.070Z,72.08
2022-10-01T10:27:04.635Z,72.22
2022-10-01T10:29:39.236Z,72.60
2022-10-01T10:32:28.899Z,72.60
2022-10-01T10:35:03.720Z,72.99
2022-10-01T10:37:34.367Z,73.14
2022-10-01T10:40:01.594Z,73.49
2022-10-01T10:42:34.063Z,74.23
2022-10-01T10:45:03.666Z,74.65
2022-10-01T10:47:33.346Z,75.17
2022-10-01T10:50:03.770Z,75.16
2022-10-01T10:52:33.395Z,75.74
2022-10-01T10:55:01.716Z,75.85
2022-10-01T10:57:31.597Z,76.32
2022-10-01T11:00:02.338Z,76.80
2022-10-01T11:02:34.384Z,77.11
2022-10-01T11:05:04.517Z,77.27
2022-10-01T11:07:39.900Z,77.58
2022-10-01T11:10:35.788Z,77.76
2022-10-01T11:13:11.375Z,78.08
2022-10-01T11:15:45.614Z,78.51
2022-10-01T11:21:50.359Z,79.20
2022-10-01T11:24:39.648Z,79.37
2022-10-01T11:27:16.836Z,79.93
2022-10-01T11:30:28.769Z,80.29
2022-10-01T11:33:23.667Z,80.52
2022-10-01T11:36:12.235Z,80.67
2022-10-01T11:38:45.924Z,80.73
2022-10-01T11:41:34.401Z,81.17
2022-10-01T11:44:05.431Z,81.24
2022-10-01T11:47:08.977Z,81.13
2022-10-01T11:49:59.863Z,81.20
2022-10-01T11:52:30.900Z,81.42
2022-10-01T11:55:28.723Z,81.75
2022-10-01T11:58:31.084Z,81.49
2022-10-01T12:01:03.831Z,81.75
2022-10-01T12:03:37.838Z,81.78
2022-10-01T12:06:09.594Z,81.92
2022-10-01T12:08:42.252Z,82.16
2022-10-01T12:11:46.614Z,81.87
2022-10-01T12:14:17.845Z,81.94
2022-10-01T12:17:03.936Z,81.88
2022-10-01T12:19:34.911Z,82.23
2022-10-01T12:22:10.883Z,82.27
2022-10-01T12:24:43.592Z,82.27
2022-10-01T12:27:32.308Z,82.53
2022-10-01T12:30:05.253Z,82.38
2022-10-01T12:33:06.189Z,82.29
2022-10-01T12:35:51.816Z,82.46
2022-10-01T12:38:36.807Z,82.36
2022-10-01T12:41:30.086Z,82.42
2022-10-01T12:44:09.857Z,82.66
2022-10-01T12:47:08.037Z,82.72
2022-10-01T12:49:41.099Z,82.85
2022-10-01T12:52:35.859Z,82.69
2022-10-01T12:55:30.866Z,83.14
2022-10-01T12:58:15.401Z,83.41
2022-10-01T13:01:10.502Z,83.50
2022-10-01T13:03:58.825Z,83.55
2022-10-01T13:06:49.911Z,84.10
2022-10-01T13:09:55.574Z,84.31
2022-10-01T13:13:07.879Z,84.21
2022-10-01T13:15:38.039Z,84.39
2022-10-01T13:18:26.550Z,84.73
2022-10-01T13:21:11.718Z,84.89
2022-10-01T13:23:53.558Z,85.01
2022-10-01T13:26:32.103Z,85.10
2022-10-01T13:29:35.737Z,85.01
2022-10-01T13:32:04.957Z,85.16
2022-10-01T13:34:42.746Z,85.35
2022-10-01T13:37:32.195Z,85.35
2022-10-01T13:39:59.783Z,85.76
2022-10-01T13:42:29.110Z,85.54
2022-10-01T13:45:01.667Z,85.51
2022-10-01T13:47:30.476Z,85.62
2022-10-01T13:50:01.086Z,85.88
2022-10-01T13:52:28.160Z,85.71
2022-10-01T13:54:56.289Z,85.48
2022-10-01T13:57:39.421Z,85.63
2022-10-01T14:00:12.524Z,85.64
2022-10-01T14:02:41.764Z,85.46
2022-10-01T14:05:17.618Z,85.13
2022-10-01T14:07:46.650Z,85.36
2022-10-01T14:10:15.478Z,85.09
2022-10-01T14:13:03.519Z,85.41
2022-10-01T14:15:57.906Z,85.53
2022-10-01T14:18:29.940Z,85.39
2022-10-01T14:21:00.103Z,85.44
2022-10-01T14:23:51.968Z,85.32
2022-10-01T14:26:42.344Z,85.74
2022-10-01T14:29:31.779Z,85.37
2022-10-01T14:32:17.481Z,85.84
2022-10-01T14:34:48.912Z,85.83
2022-10-01T14:37:17.655Z,85.87
2022-10-01T14:39:44.899Z,85.59
2022-10-01T14:42:17.630Z,85.97
2022-10-01T14:44:46.665Z,85.78
2022-10-01T14:47:28.031Z,85.98
2022-10-01T14:49:55.024Z,85.80
2022-10-01T14:52:24.476Z,86.11
2022-10-01T14:55:04.719Z,85.87
2022-10-01T14:57:36.621Z,86.19
2022-10-01T15:00:11.339Z,85.95
2022-10-01T15:02:54.736Z,86.19
2022-10-01T15:05:33.436Z,86.15
2022-10-01T15:08:14.252Z,86.15
2022-10-01T15:10:46.767Z,86.28
2022-10-01T15:13:32.794Z,86.23
2022-10-01T15:16:00.039Z,86.28
2022-10-01T15:18:27.157Z,86.54
2022-10-01T15:21:05.711Z,86.13
2022-10-01T15:23:35.067Z,86.68
2022-10-01T15:26:03.544Z,86.61
2022-10-01T15:28:33.013Z,86.51
2022-10-01T15:31:01.192Z,86.49
2022-10-01T15:33:30.518Z,86.50
2022-10-01T15:36:03.286Z,86.44
2022-10-01T15:38:36.399Z,86.50
2022-10-01T15:41:29.963Z,86.69
2022-10-01T15:43:53.379Z,86.72
2022-10-01T15:46:31.326Z,86.47
2022-10-01T15:49:21.636Z,86.44
2022-10-01T15:52:17.004Z,86.75
2022-10-01T15:54:45.004Z,86.65
2022-10-01T15:57:20.291Z,86.53
2022-10-01T15:59:54.156Z,86.62
2022-10-01T16:02:24.911Z,86.18
2022-10-01T16:04:58.466Z,86.25
2022-10-01T16:07:28.579Z,86.14
2022-10-01T16:10:03.293Z,86.04
2022-10-01T16:12:30.502Z,85.92
2022-10-01T16:15:02.305Z,86.02
2022-10-01T16:17:38.578Z,86.23
2022-10-01T16:20:14.266Z,86.51
2022-10-01T16:22:41.321Z,86.38
2022-10-01T16:25:17.379Z,86.43
2022-10-01T16:27:45.970Z,86.61
2022-10-01T16:30:29.790Z,86.45
2022-10-01T16:33:02.584Z,86.74
2022-10-01T16:35:32.751Z,86.75
2022-10-01T16:38:04.044Z,86.64
2022-10-01T16:40:32.798Z,86.67
2022-10-01T16:43:00.397Z,86.67
2022-10-01T16:45:32.731Z,86.76
2022-10-01T16:48:00.683Z,87.15
2022-10-01T16:50:27.417Z,86.95
2022-10-01T16:52:55.728Z,87.05
2022-10-01T16:55:30.037Z,87.14
2022-10-01T16:57:56.730Z,87.03
2022-10-01T17:00:26.059Z,87.36
2022-10-01T17:02:54.882Z,87.36
2022-10-01T17:05:28.972Z,87.23
2022-10-01T17:08:01.384Z,87.41
2022-10-01T17:10:31.096Z,87.31
2022-10-01T17:12:59.686Z,87.58
2022-10-01T17:15:27.700Z,87.59
2022-10-01T17:17:55.368Z,87.62
2022-10-01T17:20:23.693Z,87.59
2022-10-01T17:22:53.755Z,87.46
2022-10-01T17:25:42.357Z,87.32
2022-10-01T17:28:14.037Z,87.63
2022-10-01T17:30:41.805Z,87.43
2022-10-01T17:33:10.873Z,87.56
2022-10-01T17:35:44.938Z,87.57
2022-10-01T17:38:12.219Z,87.20
2022-10-01T17:40:45.171Z,87.25
2022-10-01T17:43:13.886Z,87.17
2022-10-01T17:45:40.933Z,87.42
2022-10-01T17:48:10.353Z,87.08
2022-10-01T17:50:46.612Z,87.51
2022-10-01T17:53:16.491Z,87.12
2022-10-01T17:55:44.773Z,87.36
2022-10-01T17:58:20.633Z,87.31
2022-10-01T18:00:49.553Z,87.44
2022-10-01T18:03:18.387Z,87.51
2022-10-01T18:05:45.382Z,87.24
2022-10-01T18:08:14.241Z,87.15
2022-10-01T18:10:44.237Z,87.15
2022-10-01T18:13:11.279Z,87.41
2022-10-01T18:16:08.970Z,87.23
2022-10-01T18:21:38.659Z,87.39
2022-10-01T18:24:07.538Z,87.60
2022-10-01T18:26:34.489Z,87.86
2022-10-01T18:29:01.540Z,88.19
2022-10-01T18:31:41.149Z,88.55
2022-10-01T18:34:35.428Z,88.70
2022-10-01T18:37:09.602Z,88.69
2022-10-01T18:39:50.125Z,88.95
2022-10-01T18:42:21.089Z,89.14
2022-10-01T18:44:53.426Z,89.12
2022-10-01T18:47:46.417Z,89.43
2022-10-01T18:50:25.097Z,89.50
2022-10-01T18:53:06.383Z,89.18
2022-10-01T18:55:56.846Z,89.25
2022-10-01T18:58:47.875Z,89.58
2022-10-01T19:01:24.484Z,89.81
2022-10-01T19:04:13.270Z,89.76
2022-10-01T19:06:59.543Z,89.80
2022-10-01T19:10:03.301Z,90.02
2022-10-01T19:12:38.980Z,90.02
2022-10-01T19:15:19.711Z,90.10
2022-10-01T19:18:12.277Z,90.54
2022-10-01T19:20:58.030Z,90.36
2022-10-01T19:23:45.337Z,90.89
2022-10-01T19:26:44.109Z,90.91
2022-10-01T19:29:27.197Z,90.64
2022-10-01T19:31:57.846Z,90.77
2022-10-01T19:34:38.328Z,91.12
2022-10-01T19:37:11.216Z,91.09
2022-10-01T19:39:42.426Z,91.40
2022-10-01T19:42:21.348Z,91.48
2022-10-01T19:45:05.209Z,91.37
2022-10-01T19:47:40.650Z,91.18
2022-10-01T19:50:24.246Z,91.69
2022-10-01T19:52:58.547Z,91.67
2022-10-01T19:55:25.629Z,91.83
2022-10-01T19:57:53.114Z,91.77
2022-10-01T20:00:22.413Z,91.58
2022-10-01T20:03:00.652Z,91.63
2022-10-01T20:05:29.687Z,91.50
2022-10-01T20:08:01.229Z,91.69
2022-10-01T20:10:50.213Z,91.56
2022-10-01T20:13:21.424Z,91.91
2022-10-01T20:16:16.287Z,91.88
2022-10-01T20:18:58.380Z,91.94
2022-10-01T20:21:30.907Z,91.94
2022-10-01T20:24:15.200Z,92.06
2022-10-01T20:27:11.631Z,91.98
2022-10-01T20:30:04.596Z,91.64
2022-10-01T20:32:38.795Z,91.92
2022-10-01T20:35:44.629Z,91.64
2022-10-01T20:38:50.623Z,92.11
2022-10-01T20:41:20.094Z,91.77
2022-10-01T20:43:51.924Z,91.68
2022-10-01T20:46:39.381Z,91.77
2022-10-01T20:49:51.110Z,91.70
2022-10-01T20:52:17.801Z,91.96
2022-10-01T20:54:47.650Z,92.01
2022-10-01T20:57:33.161Z,92.02
2022-10-01T21:00:08.677Z,91.86
2022-10-01T21:02:44.680Z,91.64
2022-10-01T21:05:30.209Z,91.80
2022-10-01T21:08:06.428Z,91.81
2022-10-01T21:11:08.786Z,91.79
2022-10-01T21:13:41.480Z,91.51
2022-10-01T21:16:26.317Z,91.67
2022-10-01T21:19:25.828Z,91.57
2022-10-01T21:22:11.492Z,91.69
2022-10-01T21:24:50.387Z,91.73
2022-10-01T21:27:34.292Z,91.68
2022-10-01T21:30:09.220Z,91.45
2022-10-01T21:33:05.681Z,91.62
2022-10-01T21:36:07.912Z,91.68
2022-10-01T21:38:55.724Z,91.43
2022-10-01T21:41:31.903Z,91.69
2022-10-01T21:44:15.348Z,91.58
2022-10-01T21:46:49.111Z,91.40
2022-10-01T21:49:40.830Z,91.44
2022-10-01T21:52:42.587Z,91.27
2022-10-01T21:55:27.079Z,91.28
2022-10-01T21:58:02.813Z,91.25
2022-10-01T22:00:30.792Z,91.33
2022-10-01T22:03:06.484Z,91.22
2022-10-01T22:05:54.795Z,91.51
2022-10-01T22:08:30.445Z,91.57
2022-10-01T22:11:01.886Z,91.15
2022-10-01T22:13:33.223Z,91.23
2022-10-01T22:16:09.610Z,91.28
2022-10-01T22:18:46.582Z,91.50
2022-10-01T22:21:20.511Z,91.48
2022-10-01T22:23:51.947Z,91.75
2022-10-01T22:26:21.542Z,91.47
2022-10-01T22:28:51.108Z,91.69
2022-10-01T22:31:22.174Z,91.53
2022-10-01T22:33:53.482Z,91.26
2022-10-01T22:36:33.377Z,91.53
2022-10-01T22:39:05.041Z,91.50
2022-10-01T22:42:03.447Z,91.80
2022-10-01T22:44:30.157Z,91.66
2022-10-01T22:47:20.556Z,91.60
2022-10-01T22:50:12.342Z,91.56
2022-10-01T22:53:08.835Z,91.75
2022-10-01T22:55:50.583Z,91.85
2022-10-01T23:01:55.353Z,91.63
2022-10-01T23:04:34.300Z,92.08
2022-10-01T23:07:17.693Z,91.73
2022-10-01T23:09:44.375Z,92.00
2022-10-01T23:12:17.777Z,92.07
2022-10-01T23:15:07.838Z,91.62
2022-10-01T23:17:41.812Z,91.77
2022-10-01T23:20:27.146Z,91.80
2022-10-01T23:23:32.058Z,91.75
2022-10-01T23:26:12.049Z,92.17
2022-10-01T23:28:57.333Z,91.93
2022-10-01T23:32:05.778Z,92.07
2022-10-01T23:34:42.007Z,92.11
2022-10-01T23:37:35.104Z,91.83
2022-10-01T23:40:07.694Z,91.95
2022-10-01T23:42:59.780Z,91.99
2022-10-01T23:45:46.738Z,92.04
2022-10-01T23:48:19.071Z,92.34
2022-10-01T23:51:10.292Z,92.13
2022-10-01T23:53:55.340Z,92.09
2022-10-01T23:56:44.222Z,92.13
2022-10-01T23:59:18.245Z,92.73
